createdAt,value
2019-02-26T00:00:10.269Z,3.11
2019-02-26T00:02:46.538Z,3.17
2019-02-26T00:05:12.530Z,3.27
2019-02-26T00:07:39.736Z,3.14
2019-02-26T00:10:09.098Z,3.09
2019-02-26T00:12:36.595Z,3.08
2019-02-26T00:15:04.734Z,3.24
2019-02-26T00:17:36.230Z,3.31
2019-02-26T00:20:01.114Z,3.36
2019-02-26T00:22:30.005Z,3.16
2019-02-26T00:25:01.003Z,3.22
2019-02-26T00:27:30.430Z,3.21
2019-02-26T00:29:58.337Z,3.31
2019-02-26T00:32:25.406Z,3.18
2019-02-26T00:34:53.141Z,3.05
2019-02-26T00:37:24.222Z,3.01
2019-02-26T00:39:52.281Z,3.06
2019-02-26T00:42:23.645Z,3.17
2019-02-26T00:44:51.484Z,3.30
2019-02-26T00:47:19.250Z,3.28
2019-02-26T00:49:48.400Z,3.34
2019-02-26T00:52:15.710Z,3.36
2019-02-26T00:54:42.904Z,3.41
2019-02-26T00:57:11.532Z,3.48
2019-02-26T00:59:41.241Z,3.47
2019-02-26T01:02:08.241Z,3.43
2019-02-26T01:04:35.401Z,3.44
2019-02-26T01:07:03.697Z,3.19
2019-02-26T01:09:33.969Z,3.28
2019-02-26T01:12:01.415Z,3.36
2019-02-26T01:14:29.330Z,3.27
2019-02-26T01:16:56.004Z,3.34
2019-02-26T01:19:22.714Z,3.14
2019-02-26T01:21:49.638Z,3.02
2019-02-26T01:24:16.418Z,2.84
2019-02-26T01:26:43.964Z,2.70
2019-02-26T01:29:16.008Z,2.62
2019-02-26T01:31:41.354Z,2.52
2019-02-26T01:34:11.486Z,2.55
2019-02-26T01:36:40.252Z,2.69
2019-02-26T01:39:09.671Z,2.61
2019-02-26T01:41:41.340Z,2.60
2019-02-26T01:44:08.835Z,2.60
2019-02-26T01:46:36.593Z,2.70
2019-02-26T01:49:23.747Z,2.74
2019-02-26T01:51:53.851Z,2.69
2019-02-26T01:54:20.866Z,2.49
2019-02-26T01:56:47.947Z,2.42
2019-02-26T01:59:18.162Z,2.41
2019-02-26T02:01:44.710Z,2.41
2019-02-26T02:04:13.234Z,2.38
2019-02-26T02:06:41.751Z,2.27
2019-02-26T02:09:11.320Z,2.46
2019-02-26T02:11:40.740Z,2.34
2019-02-26T02:14:10.344Z,2.29
2019-02-26T02:16:38.510Z,2.45
2019-02-26T02:19:05.980Z,2.52
2019-02-26T02:21:35.515Z,2.37
2019-02-26T02:24:02.155Z,2.53
2019-02-26T02:26:29.910Z,2.47
2019-02-26T02:28:57.128Z,2.45
2019-02-26T02:31:26.778Z,2.42
2019-02-26T02:33:54.112Z,2.40
2019-02-26T02:36:23.672Z,2.31
2019-02-26T02:38:55.959Z,2.48
2019-02-26T02:41:22.919Z,2.32
2019-02-26T02:43:50.498Z,2.24
2019-02-26T02:46:17.629Z,2.18
2019-02-26T02:48:44.301Z,2.31
2019-02-26T02:51:13.776Z,2.33
2019-02-26T02:53:40.542Z,2.41
2019-02-26T02:56:09.861Z,2.41
2019-02-26T02:58:38.617Z,2.43
2019-02-26T03:01:05.770Z,2.38
2019-02-26T03:03:33.605Z,2.42
2019-02-26T03:06:04.351Z,2.44
2019-02-26T03:08:29.787Z,2.52
2019-02-26T03:10:57.025Z,2.58
2019-02-26T03:13:45.646Z,2.55
2019-02-26T03:16:13.437Z,2.57
2019-02-26T03:18:42.131Z,2.69
2019-02-26T03:21:09.623Z,2.56
2019-02-26T03:23:38.009Z,2.71
2019-02-26T03:26:05.236Z,2.77
2019-02-26T03:28:34.798Z,2.69
2019-02-26T03:31:00.717Z,2.68
2019-02-26T03:33:28.216Z,2.53
2019-02-26T03:35:55.129Z,2.48
2019-02-26T03:38:23.400Z,2.47
2019-02-26T03:40:51.918Z,2.43
2019-02-26T03:43:20.154Z,2.38
2019-02-26T03:45:48.220Z,2.44
2019-02-26T03:48:19.262Z,2.55
2019-02-26T03:50:45.422Z,2.58
2019-02-26T03:53:12.757Z,2.68
2019-02-26T03:55:42.020Z,2.59
2019-02-26T03:58:08.802Z,2.50
2019-02-26T04:00:53.462Z,2.42
2019-02-26T04:03:20.777Z,2.38
2019-02-26T04:05:47.445Z,2.45
2019-02-26T04:08:16.657Z,2.51
2019-02-26T04:10:47.219Z,2.55
2019-02-26T04:13:12.270Z,2.52
2019-02-26T04:15:40.674Z,2.46
2019-02-26T04:18:07.439Z,2.42
2019-02-26T04:20:35.474Z,2.37
2019-02-26T04:23:03.233Z,2.46
2019-02-26T04:25:36.435Z,2.37
2019-02-26T04:29:03.820Z,2.43
2019-02-26T04:32:09.141Z,2.47
2019-02-26T04:35:02.991Z,2.58
2019-02-26T04:38:18.255Z,2.51
2019-02-26T04:41:20.928Z,2.38
2019-02-26T04:44:34.225Z,2.40
2019-02-26T04:47:06.371Z,2.39
2019-02-26T04:49:36.061Z,2.32
2019-02-26T04:52:04.994Z,2.35
2019-02-26T04:54:56.646Z,2.42
2019-02-26T04:57:25.699Z,2.35
2019-02-26T04:59:55.663Z,2.36
2019-02-26T05:02:24.115Z,2.33
2019-02-26T05:04:50.892Z,2.38
2019-02-26T05:07:19.416Z,2.34
2019-02-26T05:09:47.519Z,2.44
2019-02-26T05:12:15.445Z,2.53
2019-02-26T05:14:43.345Z,2.40
2019-02-26T05:17:10.576Z,2.36
2019-02-26T05:20:07.186Z,2.34
2019-02-26T05:22:35.022Z,2.34
2019-02-26T05:25:04.737Z,2.28
2019-02-26T05:27:32.303Z,2.35
2019-02-26T05:29:58.974Z,2.49
2019-02-26T05:32:27.728Z,2.54
2019-02-26T05:34:55.018Z,2.38
2019-02-26T05:37:21.690Z,2.51
2019-02-26T05:39:49.054Z,2.32
2019-02-26T05:42:17.493Z,2.20
2019-02-26T05:44:44.969Z,2.13
2019-02-26T05:47:13.236Z,2.08
2019-02-26T05:49:43.294Z,2.05
2019-02-26T05:52:24.095Z,2.09
2019-02-26T05:54:59.194Z,2.00
2019-02-26T05:57:32.347Z,1.93
2019-02-26T05:59:55.145Z,2.04
2019-02-26T06:02:24.430Z,2.09
2019-02-26T06:04:51.227Z,2.15
2019-02-26T06:07:21.715Z,2.00
2019-02-26T06:09:48.390Z,1.88
2019-02-26T06:12:16.037Z,1.97
2019-02-26T06:14:44.033Z,1.85
2019-02-26T06:17:13.191Z,1.99
2019-02-26T06:19:47.558Z,2.11
2019-02-26T06:22:18.217Z,2.04
2019-02-26T06:24:44.435Z,2.14
2019-02-26T06:27:15.388Z,2.22
2019-02-26T06:29:40.449Z,2.08
2019-02-26T06:32:10.110Z,2.07
2019-02-26T06:34:39.761Z,2.11
2019-02-26T06:37:18.104Z,2.24
2019-02-26T06:39:45.387Z,2.41
2019-02-26T06:42:14.426Z,2.35
2019-02-26T06:44:43.762Z,2.25
2019-02-26T06:47:12.610Z,2.04
2019-02-26T06:49:40.936Z,2.16
2019-02-26T06:52:08.378Z,2.21
2019-02-26T06:54:37.005Z,2.29
2019-02-26T06:57:03.706Z,2.26
2019-02-26T06:59:34.231Z,2.24
2019-02-26T07:02:00.830Z,2.31
2019-02-26T07:04:36.390Z,2.33
2019-02-26T07:07:04.412Z,2.36
2019-02-26T07:09:34.513Z,2.11
2019-02-26T07:12:01.603Z,2.01
2019-02-26T07:14:30.254Z,2.12
2019-02-26T07:16:59.188Z,2.25
2019-02-26T07:19:28.261Z,2.49
2019-02-26T07:22:02.114Z,2.62
2019-02-26T07:24:29.075Z,2.74
2019-02-26T07:26:56.993Z,2.79
2019-02-26T07:29:24.025Z,2.84
2019-02-26T07:31:51.871Z,3.08
2019-02-26T07:34:20.527Z,3.23
2019-02-26T07:36:50.712Z,3.31
2019-02-26T07:39:25.568Z,3.20
2019-02-26T07:41:54.252Z,3.21
2019-02-26T07:44:21.713Z,3.01
2019-02-26T07:46:50.561Z,2.99
2019-02-26T07:49:19.835Z,3.11
2019-02-26T07:51:46.701Z,3.20
2019-02-26T07:54:14.524Z,3.08
2019-02-26T07:56:41.527Z,3.16
2019-02-26T07:59:09.960Z,3.34
2019-02-26T08:01:39.900Z,3.34
2019-02-26T08:04:10.683Z,3.44
2019-02-26T08:06:38.479Z,3.57
2019-02-26T08:09:09.142Z,3.58
2019-02-26T08:11:36.804Z,3.49
2019-02-26T08:14:06.253Z,3.66
2019-02-26T08:16:35.007Z,3.74
2019-02-26T08:19:02.384Z,3.89
2019-02-26T08:21:30.947Z,3.96
2019-02-26T08:24:10.614Z,3.96
2019-02-26T08:26:40.378Z,3.91
2019-02-26T08:29:09.709Z,4.05
2019-02-26T08:31:36.721Z,4.07
2019-02-26T08:34:23.861Z,4.18
2019-02-26T08:36:50.618Z,4.29
2019-02-26T08:39:17.861Z,4.35
2019-02-26T08:42:05.164Z,4.46
2019-02-26T08:44:32.327Z,4.52
2019-02-26T08:46:59.001Z,4.65
2019-02-26T08:49:27.074Z,4.62
2019-02-26T08:51:54.151Z,4.81
2019-02-26T08:54:24.286Z,6.22
2019-02-26T08:56:51.624Z,5.97
2019-02-26T08:59:20.222Z,6.79
2019-02-26T09:01:47.378Z,7.96
2019-02-26T09:04:14.562Z,7.59
2019-02-26T09:06:42.938Z,7.05
2019-02-26T09:09:11.850Z,6.98
2019-02-26T09:11:42.841Z,6.58
2019-02-26T09:14:11.520Z,6.29
2019-02-26T09:16:47.683Z,7.02
2019-02-26T09:19:14.851Z,6.89
2019-02-26T09:21:45.253Z,6.98
2019-02-26T09:24:11.390Z,7.19
2019-02-26T09:26:39.170Z,7.28
2019-02-26T09:29:06.689Z,7.27
2019-02-26T09:31:34.846Z,7.36
2019-02-26T09:34:01.783Z,7.03
2019-02-26T09:39:27.023Z,7.27
2019-02-26T09:41:56.990Z,7.39
2019-02-26T09:44:26.169Z,7.59
2019-02-26T09:46:55.357Z,7.43
2019-02-26T09:49:24.616Z,7.46
2019-02-26T09:51:54.485Z,7.57
2019-02-26T09:54:22.641Z,7.63
2019-02-26T09:56:50.032Z,7.78
2019-02-26T09:59:18.100Z,8.13
2019-02-26T10:01:45.447Z,8.06
2019-02-26T10:04:12.123Z,8.03
2019-02-26T10:06:40.647Z,8.46
2019-02-26T10:09:11.294Z,8.58
2019-02-26T10:11:39.395Z,8.78
2019-02-26T10:14:08.321Z,8.71
2019-02-26T10:16:36.153Z,8.69
2019-02-26T10:19:04.099Z,9.01
2019-02-26T10:21:33.071Z,9.17
2019-02-26T10:24:02.026Z,9.39
2019-02-26T10:26:30.879Z,9.49
2019-02-26T10:29:04.317Z,9.42
2019-02-26T10:31:28.591Z,9.62
2019-02-26T10:33:55.733Z,9.40
2019-02-26T10:36:23.049Z,9.62
2019-02-26T10:38:52.634Z,9.80
2019-02-26T10:41:21.130Z,9.80
2019-02-26T10:43:48.875Z,9.99
2019-02-26T10:46:16.255Z,10.26
2019-02-26T10:48:45.653Z,10.27
2019-02-26T10:51:12.734Z,10.14
2019-02-26T10:53:39.946Z,10.26
2019-02-26T10:56:07.642Z,10.28
2019-02-26T10:58:36.088Z,10.40
2019-02-26T11:01:05.118Z,10.57
2019-02-26T11:03:37.962Z,10.65
2019-02-26T11:06:04.612Z,10.87
2019-02-26T11:08:32.798Z,10.87
2019-02-26T11:11:00.622Z,11.03
2019-02-26T11:13:27.804Z,11.03
2019-02-26T11:15:57.345Z,11.06
2019-02-26T11:18:24.740Z,11.06
2019-02-26T11:20:55.301Z,11.12
2019-02-26T11:23:30.516Z,11.22
2019-02-26T11:25:49.561Z,11.22
2019-02-26T11:28:17.050Z,11.26
2019-02-26T11:30:44.316Z,11.34
2019-02-26T11:33:13.692Z,11.36
2019-02-26T11:35:43.894Z,11.72
2019-02-26T11:38:12.340Z,11.78
2019-02-26T11:40:39.926Z,11.92
2019-02-26T11:43:11.517Z,12.00
2019-02-26T11:45:37.086Z,12.46
2019-02-26T11:48:08.129Z,12.54
2019-02-26T11:50:33.902Z,12.68
2019-02-26T11:53:01.642Z,12.81
2019-02-26T11:55:31.853Z,12.58
2019-02-26T11:57:57.817Z,12.45
2019-02-26T12:00:59.985Z,12.50
2019-02-26T12:03:30.162Z,12.81
2019-02-26T12:05:58.439Z,14.01
2019-02-26T12:08:25.927Z,13.42
2019-02-26T12:10:57.679Z,12.85
2019-02-26T12:13:24.979Z,12.74
2019-02-26T12:15:52.197Z,13.02
2019-02-26T12:18:19.999Z,13.30
2019-02-26T12:20:48.792Z,13.06
2019-02-26T12:23:19.004Z,13.46
2019-02-26T12:25:47.202Z,13.78
2019-02-26T12:28:15.739Z,13.62
2019-02-26T12:30:44.773Z,14.24
2019-02-26T12:33:14.319Z,13.90
2019-02-26T12:35:43.499Z,13.25
2019-02-26T12:38:18.029Z,13.18
2019-02-26T12:40:41.146Z,13.26
2019-02-26T12:43:11.672Z,13.15
2019-02-26T12:45:40.531Z,13.22
2019-02-26T12:48:10.129Z,13.96
2019-02-26T12:50:40.121Z,14.17
2019-02-26T12:53:11.546Z,14.67
2019-02-26T12:55:38.221Z,13.92
2019-02-26T12:58:04.400Z,14.32
2019-02-26T13:00:31.621Z,14.67
2019-02-26T13:02:59.351Z,15.13
2019-02-26T13:05:26.399Z,15.60
2019-02-26T13:07:54.258Z,15.60
2019-02-26T13:10:21.054Z,15.56
2019-02-26T13:12:52.843Z,16.29
2019-02-26T13:15:19.384Z,16.14
2019-02-26T13:17:48.914Z,15.88
2019-02-26T13:20:17.638Z,15.62
2019-02-26T13:22:45.915Z,15.65
2019-02-26T13:25:15.560Z,15.23
2019-02-26T13:27:43.659Z,14.96
2019-02-26T13:30:15.470Z,15.49
2019-02-26T13:32:55.115Z,15.95
2019-02-26T13:35:11.829Z,16.84
2019-02-26T13:37:41.933Z,15.85
2019-02-26T13:40:11.768Z,16.14
2019-02-26T13:42:39.324Z,15.87
2019-02-26T13:45:08.302Z,16.10
2019-02-26T13:47:35.655Z,16.34
2019-02-26T13:50:03.180Z,16.23
2019-02-26T13:52:30.563Z,17.51
2019-02-26T13:54:57.635Z,16.75
2019-02-26T13:57:24.646Z,17.03
2019-02-26T13:59:52.537Z,17.20
2019-02-26T14:02:19.885Z,16.64
2019-02-26T14:04:47.366Z,17.39
2019-02-26T14:07:14.577Z,18.49
2019-02-26T14:09:42.514Z,18.27
2019-02-26T14:12:09.551Z,18.27
2019-02-26T14:14:36.802Z,17.81
2019-02-26T14:17:04.056Z,17.65
2019-02-26T14:19:31.084Z,18.03
2019-02-26T14:21:58.008Z,17.48
2019-02-26T14:24:24.717Z,17.42
2019-02-26T14:26:52.621Z,17.48
2019-02-26T14:29:19.838Z,17.24
2019-02-26T14:31:47.227Z,16.98
2019-02-26T14:34:14.624Z,16.78
2019-02-26T14:36:42.159Z,16.96
2019-02-26T14:39:10.098Z,18.37
2019-02-26T14:41:37.895Z,18.17
2019-02-26T14:44:05.649Z,17.57
2019-02-26T14:46:33.118Z,17.44
2019-02-26T14:49:00.888Z,17.01
2019-02-26T14:51:27.674Z,16.79
2019-02-26T14:53:54.582Z,16.76
2019-02-26T14:56:22.328Z,16.55
2019-02-26T14:58:49.237Z,17.33
2019-02-26T15:01:16.737Z,17.36
2019-02-26T15:03:43.970Z,16.65
2019-02-26T15:06:11.625Z,16.92
2019-02-26T15:08:41.290Z,16.86
2019-02-26T15:11:08.378Z,16.81
2019-02-26T15:13:35.748Z,16.59
2019-02-26T15:16:03.406Z,16.15
2019-02-26T15:18:31.487Z,15.96
2019-02-26T15:20:58.162Z,15.71
2019-02-26T15:23:25.329Z,15.37
2019-02-26T15:25:53.963Z,15.14
2019-02-26T15:28:20.997Z,14.71
2019-02-26T15:30:47.839Z,14.85
2019-02-26T15:33:14.654Z,14.40
2019-02-26T15:35:41.570Z,14.31
2019-02-26T15:38:08.571Z,14.15
2019-02-26T15:40:36.129Z,14.07
2019-02-26T15:43:03.392Z,13.89
2019-02-26T15:45:31.053Z,13.66
2019-02-26T15:47:58.303Z,13.54
2019-02-26T15:50:25.038Z,13.44
2019-02-26T15:52:53.000Z,13.29
2019-02-26T15:55:21.594Z,13.23
2019-02-26T15:57:49.853Z,13.16
2019-02-26T16:00:18.330Z,13.20
2019-02-26T16:02:46.689Z,12.97
2019-02-26T16:05:14.056Z,12.98
2019-02-26T16:07:41.094Z,12.85
2019-02-26T16:10:08.669Z,12.85
2019-02-26T16:12:35.653Z,12.89
2019-02-26T16:15:07.950Z,12.92
2019-02-26T16:17:33.739Z,12.71
2019-02-26T16:20:00.684Z,12.70
2019-02-26T16:22:28.432Z,12.52
2019-02-26T16:24:55.798Z,12.49
2019-02-26T16:27:22.491Z,12.37
2019-02-26T16:29:51.222Z,12.35
2019-02-26T16:32:18.411Z,12.29
2019-02-26T16:34:45.805Z,12.16
2019-02-26T16:37:12.850Z,12.04
2019-02-26T16:39:40.433Z,12.07
2019-02-26T16:42:11.434Z,11.88
2019-02-26T16:44:37.447Z,11.66
2019-02-26T16:47:05.348Z,11.54
2019-02-26T16:49:33.215Z,11.57
2019-02-26T16:52:00.992Z,11.53
2019-02-26T16:54:28.429Z,11.49
2019-02-26T16:56:55.486Z,11.43
2019-02-26T16:59:22.769Z,11.41
2019-02-26T17:01:49.569Z,11.93
2019-02-26T17:04:16.819Z,12.03
2019-02-26T17:06:44.485Z,12.08
2019-02-26T17:09:11.185Z,11.72
2019-02-26T17:11:37.966Z,12.13
2019-02-26T17:14:05.218Z,11.88
2019-02-26T17:16:32.061Z,11.55
2019-02-26T17:19:00.647Z,11.28
2019-02-26T17:21:30.621Z,10.92
2019-02-26T17:23:57.614Z,10.89
2019-02-26T17:26:24.662Z,10.89
2019-02-26T17:28:51.797Z,10.88
2019-02-26T17:31:18.492Z,10.75
2019-02-26T17:33:46.720Z,10.75
2019-02-26T17:36:14.027Z,10.67
2019-02-26T17:38:41.422Z,10.67
2019-02-26T17:41:09.905Z,10.46
2019-02-26T17:43:36.782Z,10.45
2019-02-26T17:46:03.566Z,10.39
2019-02-26T17:48:31.776Z,10.35
2019-02-26T17:51:00.253Z,10.34
2019-02-26T17:53:27.920Z,10.34
2019-02-26T17:55:55.379Z,10.14
2019-02-26T17:58:22.292Z,10.11
2019-02-26T18:00:54.597Z,10.11
2019-02-26T18:03:21.709Z,9.98
2019-02-26T18:05:51.523Z,9.99
2019-02-26T18:08:19.077Z,9.91
2019-02-26T18:10:47.810Z,9.91
2019-02-26T18:13:14.617Z,9.70
2019-02-26T18:15:41.656Z,9.70
2019-02-26T18:18:08.853Z,9.36
2019-02-26T18:20:35.630Z,9.22
2019-02-26T18:23:02.909Z,9.22
2019-02-26T18:25:29.609Z,9.21
2019-02-26T18:27:59.638Z,9.21
2019-02-26T18:30:26.919Z,9.26
2019-02-26T18:32:56.423Z,9.28
2019-02-26T18:35:23.960Z,9.22
2019-02-26T18:37:51.792Z,9.22
2019-02-26T18:40:19.421Z,9.20
2019-02-26T18:42:46.978Z,9.08
2019-02-26T18:45:16.694Z,9.04
2019-02-26T18:47:45.120Z,8.99
2019-02-26T18:50:13.582Z,8.93
2019-02-26T18:52:42.058Z,8.91
2019-02-26T18:55:12.650Z,8.87
2019-02-26T18:57:43.351Z,8.75
2019-02-26T19:00:10.938Z,8.68
2019-02-26T19:02:42.157Z,8.72
2019-02-26T19:05:10.286Z,8.64
2019-02-26T19:07:38.162Z,8.38
2019-02-26T19:10:07.751Z,8.27
2019-02-26T19:12:35.498Z,8.09
2019-02-26T19:15:03.126Z,7.75
2019-02-26T19:17:30.769Z,7.60
2019-02-26T19:19:57.477Z,7.65
2019-02-26T19:22:26.642Z,7.69
2019-02-26T19:24:53.915Z,7.95
2019-02-26T19:27:21.585Z,8.07
2019-02-26T19:29:49.743Z,7.97
2019-02-26T19:32:16.864Z,7.93
2019-02-26T19:34:44.655Z,7.87
2019-02-26T19:37:12.216Z,7.82
2019-02-26T19:39:39.050Z,7.70
2019-02-26T19:42:05.989Z,7.77
2019-02-26T19:44:35.928Z,7.74
2019-02-26T19:47:03.663Z,7.59
2019-02-26T19:49:30.594Z,7.37
2019-02-26T19:51:57.703Z,7.40
2019-02-26T19:54:24.938Z,7.48
2019-02-26T19:56:52.186Z,7.51
2019-02-26T19:59:21.086Z,7.54
2019-02-26T20:01:48.177Z,7.47
2019-02-26T20:04:15.105Z,7.30
2019-02-26T20:06:42.139Z,7.17
2019-02-26T20:09:08.920Z,7.11
2019-02-26T20:11:36.218Z,7.06
2019-02-26T20:14:04.919Z,7.08
2019-02-26T20:16:33.012Z,7.17
2019-02-26T20:19:00.058Z,7.12
2019-02-26T20:21:26.877Z,7.00
2019-02-26T20:23:54.513Z,6.86
2019-02-26T20:26:21.673Z,6.81
2019-02-26T20:28:48.763Z,6.73
2019-02-26T20:31:16.122Z,6.66
2019-02-26T20:33:43.768Z,6.51
2019-02-26T20:36:10.651Z,6.48
2019-02-26T20:38:38.237Z,6.33
2019-02-26T20:41:05.096Z,6.32
2019-02-26T20:43:31.939Z,6.53
2019-02-26T20:45:59.156Z,6.53
2019-02-26T20:48:27.370Z,6.36
2019-02-26T20:50:56.652Z,6.24
2019-02-26T20:53:23.997Z,6.22
2019-02-26T20:55:52.716Z,6.17
2019-02-26T20:58:20.494Z,6.07
2019-02-26T21:00:48.266Z,6.00
2019-02-26T21:03:15.098Z,5.93
2019-02-26T21:05:44.738Z,5.98
2019-02-26T21:08:10.926Z,5.87
2019-02-26T21:10:38.123Z,5.84
2019-02-26T21:13:05.389Z,5.83
2019-02-26T21:15:32.493Z,5.89
2019-02-26T21:17:59.876Z,5.93
2019-02-26T21:20:27.991Z,5.97
2019-02-26T21:22:56.767Z,6.11
2019-02-26T21:25:23.820Z,6.17
2019-02-26T21:27:51.275Z,6.19
2019-02-26T21:30:18.191Z,6.21
2019-02-26T21:32:46.272Z,6.07
2019-02-26T21:35:13.287Z,6.04
2019-02-26T21:37:40.627Z,6.24
2019-02-26T21:40:08.017Z,6.25
2019-02-26T21:42:35.697Z,6.11
2019-02-26T21:45:03.136Z,6.09
2019-02-26T21:47:30.606Z,6.05
2019-02-26T21:49:57.482Z,6.04
2019-02-26T21:52:24.781Z,6.00
2019-02-26T21:54:52.034Z,5.99
2019-02-26T21:57:21.791Z,6.03
2019-02-26T21:59:50.146Z,6.16
2019-02-26T22:02:18.811Z,6.09
2019-02-26T22:04:46.265Z,6.10
2019-02-26T22:07:14.159Z,6.07
2019-02-26T22:09:41.163Z,6.17
2019-02-26T22:12:08.981Z,6.17
2019-02-26T22:14:36.875Z,6.11
2019-02-26T22:17:05.067Z,5.86
2019-02-26T22:19:32.310Z,5.71
2019-02-26T22:21:59.465Z,5.65
2019-02-26T22:24:26.719Z,5.71
2019-02-26T22:26:59.461Z,5.65
2019-02-26T22:29:23.888Z,5.37
2019-02-26T22:31:50.571Z,5.35
2019-02-26T22:34:19.068Z,5.37
2019-02-26T22:36:46.698Z,5.45
2019-02-26T22:39:15.399Z,5.61
2019-02-26T22:41:43.149Z,5.67
2019-02-26T22:44:10.614Z,5.59
2019-02-26T22:46:37.844Z,5.43
2019-02-26T22:49:05.195Z,5.47
2019-02-26T22:51:32.446Z,5.40
2019-02-26T22:53:59.370Z,5.33
2019-02-26T22:56:26.036Z,5.24
2019-02-26T22:58:54.242Z,5.20
2019-02-26T23:01:30.798Z,5.17
2019-02-26T23:03:58.789Z,5.18
2019-02-26T23:06:25.663Z,5.31
2019-02-26T23:08:53.471Z,5.29
2019-02-26T23:11:20.831Z,5.37
2019-02-26T23:13:48.573Z,5.26
2019-02-26T23:16:18.482Z,5.13
2019-02-26T23:18:45.263Z,4.90
2019-02-26T23:21:15.500Z,4.88
2019-02-26T23:23:42.650Z,4.83
2019-02-26T23:26:09.879Z,4.72
2019-02-26T23:28:37.600Z,4.71
2019-02-26T23:31:05.963Z,4.71
2019-02-26T23:33:33.902Z,4.58
2019-02-26T23:36:01.898Z,4.58
2019-02-26T23:38:28.810Z,4.62
2019-02-26T23:40:58.185Z,4.45
2019-02-26T23:43:24.831Z,4.42
2019-02-26T23:45:56.825Z,4.44
2019-02-26T23:48:21.745Z,4.49
2019-02-26T23:50:49.026Z,4.43
2019-02-26T23:53:15.739Z,4.45
2019-02-26T23:55:46.300Z,4.43
2019-02-26T23:58:12.338Z,4.52
